Time;durP1;ratioP1;P1;durP2;ratioP2;P2;SDS_P1;SDS_P2;PMS_P1;PMS_P2;Temp;Humidity;BMP_temperature;BMP_pressure;BME280_temperature;BME280_humidity;BME280_pressure;Samples;Min_cycle;Max_cycle;Signal;HPM_P1;HPM_P2
2023/03/04 00:00:14;;;;;;;62.00;31.80;;;;;;;-0.27;100.00;99074.84;109242;1257;60156;-78
2023/03/04 00:03:00;;;;;;;71.10;32.40;;;;;;;-0.25;100.00;99070.10;109075;1257;73099;-77
2023/03/04 00:05:27;;;;;;;65.50;32.50;;;;;;;-0.25;100.00;99065.39;109203;1256;59137;-77
2023/03/04 00:07:53;;;;;;;67.00;32.00;;;;;;;-0.24;100.00;99065.70;109526;1251;59016;-76
2023/03/04 00:10:20;;;;;;;60.50;29.50;;;;;;;-0.25;100.00;99064.49;109424;1251;59249;-78
2023/03/04 00:12:46;;;;;;;55.60;27.50;;;;;;;-0.23;100.00;99062.38;109667;1250;61097;-77
2023/03/04 00:15:13;;;;;;;62.80;29.00;;;;;;;-0.23;100.00;99056.44;109600;1251;64962;-77
2023/03/04 00:17:44;;;;;;;63.90;32.30;;;;;;;-0.23;100.00;99051.73;109593;1250;59004;-78
2023/03/04 00:20:12;;;;;;;64.00;31.20;;;;;;;-0.23;100.00;99048.73;109644;1251;59088;-78
2023/03/04 00:22:38;;;;;;;63.50;31.00;;;;;;;-0.22;100.00;99049.06;109627;1251;66058;-76
2023/03/04 00:25:05;;;;;;;57.30;28.60;;;;;;;-0.20;100.00;99042.58;109658;1251;58951;-77
2023/03/04 00:27:32;;;;;;;62.70;31.00;;;;;;;-0.19;100.00;99035.56;109283;1251;62546;-78
2023/03/04 00:29:58;;;;;;;67.60;31.80;;;;;;;-0.18;100.00;99034.86;109615;1250;58962;-78
2023/03/04 00:32:25;;;;;;;61.80;30.50;;;;;;;-0.17;100.00;99034.65;109631;1250;59105;-77
2023/03/04 00:34:51;;;;;;;64.20;30.00;;;;;;;-0.16;100.00;99033.73;109628;1251;59038;-78
2023/03/04 00:37:18;;;;;;;63.20;29.50;;;;;;;-0.16;100.00;99027.45;109594;1251;59061;-78
2023/03/04 00:39:45;;;;;;;61.30;29.70;;;;;;;-0.16;100.00;99025.90;109599;1251;64045;-78
2023/03/04 00:42:11;;;;;;;57.10;27.70;;;;;;;-0.17;100.00;99024.00;109607;1251;59028;-79
2023/03/04 00:44:38;;;;;;;54.10;27.10;;;;;;;-0.17;100.00;99019.45;109639;1250;59086;-78
2023/03/04 00:47:04;;;;;;;54.00;27.50;;;;;;;-0.17;100.00;99012.84;109629;1251;66030;-78
2023/03/04 00:49:31;;;;;;;54.10;26.50;;;;;;;-0.17;100.00;99015.09;109634;1251;61314;-78
2023/03/04 00:51:58;;;;;;;54.00;26.60;;;;;;;-0.16;100.00;99011.23;109615;1250;64865;-77
2023/03/04 00:54:24;;;;;;;56.20;27.30;;;;;;;-0.16;100.00;99009.48;109662;1251;58967;-77
2023/03/04 00:56:51;;;;;;;55.00;29.00;;;;;;;-0.16;100.00;99011.40;109670;1251;59107;-79
2023/03/04 00:59:17;;;;;;;56.60;27.30;;;;;;;-0.15;100.00;99007.20;109645;1250;65941;-77
2023/03/04 01:01:44;;;;;;;59.60;28.20;;;;;;;-0.15;100.00;98997.41;109655;1251;58916;-77
2023/03/04 01:04:10;;;;;;;51.30;27.80;;;;;;;-0.14;100.00;98992.34;109595;1250;65536;-78
2023/03/04 01:06:37;;;;;;;51.50;24.70;;;;;;;-0.14;100.00;98993.02;109553;1250;59090;-78
2023/03/04 01:09:03;;;;;;;57.20;29.80;;;;;;;-0.14;100.00;98989.54;109613;1250;59023;-79
2023/03/04 01:11:30;;;;;;;55.10;27.10;;;;;;;-0.13;100.00;98987.77;109617;1251;66221;-78
2023/03/04 01:13:56;;;;;;;55.00;27.00;;;;;;;-0.12;100.00;98980.75;109618;1251;59027;-77
2023/03/04 01:16:23;;;;;;;54.30;26.40;;;;;;;-0.11;100.00;98974.08;109641;1251;58972;-77
2023/03/04 01:18:49;;;;;;;53.80;26.70;;;;;;;-0.11;100.00;98963.45;109573;1250;59211;-77
2023/03/04 01:21:16;;;;;;;52.50;26.00;;;;;;;-0.11;100.00;98952.61;109667;1250;59018;-77
2023/03/04 01:23:43;;;;;;;50.20;24.90;;;;;;;-0.10;100.00;98947.71;109648;1250;66004;-77
2023/03/04 01:26:09;;;;;;;47.90;26.60;;;;;;;-0.09;100.00;98949.59;109622;1250;59077;-77
2023/03/04 01:28:35;;;;;;;56.40;25.80;;;;;;;-0.09;100.00;98943.30;109602;1250;64092;-78
2023/03/04 01:31:02;;;;;;;47.20;23.60;;;;;;;-0.09;100.00;98934.59;109563;1250;59004;-77
2023/03/04 01:33:30;;;;;;;46.60;24.90;;;;;;;-0.10;100.00;98928.67;109593;1250;58889;-78
2023/03/04 01:35:57;;;;;;;49.70;24.50;;;;;;;-0.11;100.00;98925.35;109586;1250;67008;-77
2023/03/04 01:38:24;;;;;;;47.10;23.90;;;;;;;-0.11;100.00;98919.77;109369;1250;61083;-76
2023/03/04 01:40:50;;;;;;;49.50;23.60;;;;;;;-0.11;100.00;98914.36;109663;1250;59014;-77
2023/03/04 01:43:24;;;;;;;47.30;25.30;;;;;;;-0.11;100.00;98914.02;109391;1251;59087;-77
2023/03/04 01:45:51;;;;;;;48.00;24.20;;;;;;;-0.11;100.00;98915.25;109659;1250;58866;-77
2023/03/04 01:48:26;;;;;;;46.60;23.60;;;;;;;-0.12;100.00;98917.55;109626;1250;66128;-78
2023/03/04 01:50:53;;;;;;;53.10;25.70;;;;;;;-0.13;100.00;98912.50;109666;1250;60242;-77
2023/03/04 01:53:23;;;;;;;49.00;24.80;;;;;;;-0.13;100.00;98909.70;109607;1250;64045;-77
2023/03/04 01:55:51;;;;;;;;;;;;;;;-0.12;100.00;98905.33;109604;1250;58903;-78
2023/03/04 01:58:17;;;;;;;41.40;21.50;;;;;;;-0.12;100.00;98906.56;109663;1250;59027;-77
2023/03/04 02:00:44;;;;;;;44.40;22.20;;;;;;;-0.12;100.00;98905.48;109663;1250;66002;-77
2023/03/04 02:03:14;;;;;;;42.80;22.80;;;;;;;-0.11;100.00;98902.84;108118;1250;1002974;-78
2023/03/04 02:05:44;;;;;;;38.30;21.80;;;;;;;-0.10;100.00;98900.55;109620;1250;64030;-78
2023/03/04 02:08:11;;;;;;;;;;;;;;;-0.09;100.00;98894.60;109652;1250;59029;-78
2023/03/04 02:10:40;;;;;;;43.70;20.60;;;;;;;-0.10;100.00;98890.43;109628;1250;58949;-78
2023/03/04 02:13:07;;;;;;;43.10;21.70;;;;;;;-0.09;100.00;98884.83;109652;1250;67248;-78
2023/03/04 02:15:34;;;;;;;42.30;22.90;;;;;;;-0.09;100.00;98879.05;109634;1250;59831;-78
2023/03/04 02:18:01;;;;;;;44.30;22.90;;;;;;;-0.09;100.00;98881.33;109607;1250;63736;-77
2023/03/04 02:20:49;;;;;;;38.80;20.60;;;;;;;-0.08;100.00;98879.02;109617;1250;59192;-77
2023/03/04 02:23:34;;;;;;;43.00;22.00;;;;;;;-0.07;100.00;98879.34;109622;1250;59099;-77
2023/03/04 02:26:22;;;;;;;42.70;21.80;;;;;;;-0.07;100.00;98878.29;109569;1250;64845;-77
2023/03/04 02:28:50;;;;;;;37.00;21.40;;;;;;;-0.07;100.00;98873.95;109618;1250;60098;-77
2023/03/04 02:31:30;;;;;;;41.10;20.90;;;;;;;-0.08;100.00;98868.71;109595;1250;64061;-76
2023/03/04 02:34:01;;;;;;;46.00;24.20;;;;;;;-0.07;100.00;98869.73;109597;1250;58965;-78
2023/03/04 02:36:29;;;;;;;40.90;21.80;;;;;;;-0.05;100.00;98870.75;109613;1250;58944;-77
2023/03/04 02:39:02;;;;;;;38.40;20.10;;;;;;;-0.04;100.00;98869.14;109660;1250;65879;-77
2023/03/04 02:41:30;;;;;;;46.70;23.00;;;;;;;-0.04;100.00;98861.63;109329;1250;59044;-77
2023/03/04 02:43:56;;;;;;;42.90;23.10;;;;;;;-0.04;100.00;98858.14;109602;1250;64064;-77
2023/03/04 02:46:23;;;;;;;41.00;22.80;;;;;;;-0.04;100.00;98859.71;109641;1250;59013;-78
2023/03/04 02:48:50;;;;;;;47.10;24.30;;;;;;;-0.06;100.00;98851.54;109657;1250;58830;-77
2023/03/04 02:51:17;;;;;;;48.30;24.40;;;;;;;-0.06;100.00;98845.44;109653;1250;64845;-78
2023/03/04 02:53:44;;;;;;;43.50;23.80;;;;;;;-0.06;100.00;98839.84;109612;1250;60157;-78
2023/03/04 02:56:10;;;;;;;42.10;22.50;;;;;;;-0.05;100.00;98836.67;109662;1250;64076;-77
2023/03/04 02:58:37;;;;;;;46.60;24.60;;;;;;;-0.05;100.00;98831.98;109587;1250;59279;-78
2023/03/04 03:01:07;;;;;;;45.20;22.60;;;;;;;-0.05;100.00;98828.14;109602;1250;59076;-77
2023/03/04 03:03:33;;;;;;;;;;;;;;;-0.05;100.00;98825.34;109649;1250;66399;-78
2023/03/04 03:06:00;;;;;;;39.00;22.30;;;;;;;-0.06;100.00;98826.05;109584;1250;59380;-77
2023/03/04 03:08:26;;;;;;;45.00;23.60;;;;;;;-0.06;100.00;98825.89;109595;1250;64016;-77
2023/03/04 03:10:53;;;;;;;40.70;22.20;;;;;;;-0.07;100.00;98822.61;109632;1250;58923;-78
2023/03/04 03:13:20;;;;;;;41.10;23.00;;;;;;;-0.07;100.00;98819.10;109636;1250;59632;-76
2023/03/04 03:15:46;;;;;;;43.70;24.40;;;;;;;-0.07;100.00;98822.06;109614;1250;66990;-78
2023/03/04 03:18:13;;;;;;;41.50;21.60;;;;;;;-0.06;100.00;98824.85;109536;1250;60002;-78
2023/03/04 03:20:41;;;;;;;43.30;21.80;;;;;;;-0.06;100.00;98822.38;109636;1250;63737;-78
2023/03/04 03:23:08;;;;;;;37.90;19.90;;;;;;;-0.06;100.00;98817.67;109587;1250;59014;-77
2023/03/04 03:25:35;;;;;;;42.00;22.50;;;;;;;-0.06;100.00;98814.89;109656;1250;59151;-78
2023/03/04 03:28:01;;;;;;;43.10;21.80;;;;;;;-0.10;100.00;98813.59;109621;1250;73560;-79
2023/03/04 03:30:28;;;;;;;41.60;23.00;;;;;;;-0.14;100.00;98807.06;109620;1250;60733;-76
2023/03/04 03:32:55;;;;;;;39.70;22.00;;;;;;;-0.21;100.00;98804.27;109580;1250;63682;-77
2023/03/04 03:35:21;;;;;;;44.00;22.60;;;;;;;-0.29;100.00;98803.61;109634;1250;58970;-76
2023/03/04 03:37:48;;;;;;;40.30;22.10;;;;;;;-0.38;100.00;98799.67;109660;1250;58943;-78
2023/03/04 03:40:15;;;;;;;45.40;24.00;;;;;;;-0.48;100.00;98795.03;109663;1250;66097;-79
2023/03/04 03:42:42;;;;;;;45.00;24.00;;;;;;;-0.56;100.00;98795.06;109530;1250;61073;-77
2023/03/04 03:45:09;;;;;;;48.10;24.60;;;;;;;-0.65;100.00;98795.09;109626;1250;65296;-78
2023/03/04 03:47:36;;;;;;;43.60;23.20;;;;;;;-0.73;100.00;98793.73;109594;1250;59015;-78
2023/03/04 03:50:03;;;;;;;52.20;25.10;;;;;;;-0.80;100.00;98793.23;109638;1250;58953;-78
2023/03/04 03:52:30;;;;;;;69.50;30.20;;;;;;;-0.86;100.00;98790.06;109596;1250;65659;-78
2023/03/04 03:54:56;;;;;;;56.20;27.50;;;;;;;-0.92;100.00;98794.55;109641;1250;60813;-77
2023/03/04 03:57:23;;;;;;;64.90;29.30;;;;;;;-0.98;100.00;98793.27;109662;1250;64718;-78
2023/03/04 03:59:50;;;;;;;72.60;32.80;;;;;;;-1.04;100.00;98792.89;109577;1250;59114;-78
2023/03/04 04:02:16;;;;;;;84.40;34.80;;;;;;;-1.08;100.00;98793.18;109616;1250;59000;-78
2023/03/04 04:04:43;;;;;;;78.40;34.30;;;;;;;-1.13;100.00;98799.05;108839;1253;1002169;-78
2023/03/04 04:07:09;;;;;;;72.40;32.50;;;;;;;-1.18;100.00;98797.77;109620;1250;60048;-78
2023/03/04 04:09:36;;;;;;;64.10;29.20;;;;;;;-1.22;100.00;98795.94;109494;1250;64784;-78
2023/03/04 04:12:06;;;;;;;82.00;34.70;;;;;;;-1.27;100.00;98793.79;109576;1250;59025;-78
2023/03/04 04:14:33;;;;;;;;;;;;;;;-1.32;100.00;98796.69;109560;1250;58795;-78
2023/03/04 04:16:59;;;;;;;78.10;34.20;;;;;;;-1.38;100.00;98791.41;109605;1250;65992;-78
2023/03/04 04:19:27;;;;;;;64.30;30.40;;;;;;;-1.41;100.00;98794.77;109390;1250;61058;-78
2023/03/04 04:21:53;;;;;;;69.90;31.40;;;;;;;-1.43;100.00;98795.70;109613;1250;65408;-77
2023/03/04 04:24:20;;;;;;;72.50;32.60;;;;;;;-1.45;100.00;98795.59;109604;1250;59057;-77
2023/03/04 04:26:47;;;;;;;92.00;37.40;;;;;;;-1.50;100.00;98797.42;109555;1252;59054;-78
2023/03/04 04:29:15;;;;;;;66.40;31.30;;;;;;;-1.53;100.00;98795.41;109631;1250;66942;-77
2023/03/04 04:31:41;;;;;;;69.50;31.40;;;;;;;-1.56;100.00;98795.80;109698;1250;61330;-76
2023/03/04 04:34:08;;;;;;;65.00;30.10;;;;;;;-1.59;100.00;98796.38;109418;1250;64745;-79
2023/03/04 04:36:35;;;;;;;61.60;29.70;;;;;;;-1.62;100.00;98794.19;109450;1250;59002;-78
2023/03/04 04:39:03;;;;;;;64.00;29.70;;;;;;;-1.65;100.00;98796.35;109624;1250;59031;-78
2023/03/04 04:41:39;;;;;;;64.40;28.90;;;;;;;-1.67;100.00;98797.27;109635;1250;66197;-78
2023/03/04 04:44:05;;;;;;;68.80;30.30;;;;;;;-1.70;100.00;98800.98;109632;1250;59823;-79
2023/03/04 04:46:32;;;;;;;80.50;32.40;;;;;;;-1.73;100.00;98799.11;109610;1250;65278;-79
2023/03/04 04:49:00;;;;;;;86.80;33.80;;;;;;;-1.74;100.00;98800.20;108867;1250;1002880;-79
2023/03/04 04:51:27;;;;;;;69.00;29.40;;;;;;;-1.77;100.00;98796.23;109582;1250;60215;-78
2023/03/04 04:53:54;;;;;;;62.40;28.50;;;;;;;-1.79;100.00;98795.58;109366;1250;67298;-78
2023/03/04 04:56:25;;;;;;;64.60;29.80;;;;;;;-1.82;100.00;98796.16;109619;1250;61144;-77
2023/03/04 04:59:02;;;;;;;58.50;28.70;;;;;;;-1.84;100.00;98792.04;109594;1250;65170;-78
2023/03/04 05:01:29;;;;;;;59.80;27.50;;;;;;;-1.89;100.00;98793.00;109613;1250;59295;-78
2023/03/04 05:03:55;;;;;;;60.00;28.80;;;;;;;-1.94;100.00;98787.88;109618;1250;59127;-78
2023/03/04 05:06:23;;;;;;;55.00;24.80;;;;;;;-1.96;100.00;98791.94;109391;1250;67061;-77
2023/03/04 05:08:50;;;;;;;55.00;27.00;;;;;;;-1.95;100.00;98788.60;108911;1250;1002045;-77
2023/03/04 05:11:18;;;;;;;59.80;29.10;;;;;;;-1.93;100.00;98788.58;109574;1250;65040;-77
2023/03/04 05:13:46;;;;;;;58.00;29.30;;;;;;;-1.91;100.00;98786.44;109411;1250;59009;-78
2023/03/04 05:16:14;;;;;;;57.90;27.80;;;;;;;-1.89;100.00;98783.27;109651;1250;58992;-78
2023/03/04 05:18:41;;;;;;;60.20;27.80;;;;;;;-1.85;100.00;98784.38;108801;1250;1002474;-78
2023/03/04 05:21:08;;;;;;;66.00;31.30;;;;;;;-1.78;100.00;98786.33;109634;1250;61245;-78
2023/03/04 05:23:38;;;;;;;64.90;29.90;;;;;;;-1.71;100.00;98793.86;109634;1250;63491;-80
2023/03/04 05:26:06;;;;;;;69.00;32.20;;;;;;;-1.64;100.00;98788.50;109614;1250;58914;-78
2023/03/04 05:28:33;;;;;;;68.00;31.60;;;;;;;-1.59;100.00;98791.67;109573;1250;59118;-78
2023/03/04 05:30:59;;;;;;;70.90;32.70;;;;;;;-1.53;100.00;98793.66;109641;1250;67163;-77
2023/03/04 05:33:26;;;;;;;66.80;32.20;;;;;;;-1.48;100.00;98797.22;109649;1250;60837;-78
2023/03/04 05:35:53;;;;;;;69.10;34.20;;;;;;;-1.44;100.00;98801.47;109591;1250;65179;-78
2023/03/04 05:38:21;;;;;;;65.40;32.90;;;;;;;-1.39;100.00;98802.93;109558;1250;59035;-76
2023/03/04 05:40:48;;;;;;;70.40;34.20;;;;;;;-1.35;100.00;98808.93;109589;1250;58919;-79
2023/03/04 05:43:16;;;;;;;77.30;34.90;;;;;;;-1.30;100.00;98805.88;109348;1250;65068;-79
2023/03/04 05:45:42;;;;;;;66.00;33.90;;;;;;;-1.28;100.00;98803.39;109668;1250;60231;-79
2023/03/04 05:48:10;;;;;;;59.50;30.20;;;;;;;-1.28;100.00;98808.09;109597;1250;64189;-77
2023/03/04 05:50:36;;;;;;;71.90;37.30;;;;;;;-1.28;100.00;98806.19;109593;1250;59181;-77
2023/03/04 05:53:03;;;;;;;72.90;35.80;;;;;;;-1.28;100.00;98805.13;109641;1250;58984;-77
2023/03/04 05:55:30;;;;;;;70.00;37.30;;;;;;;-1.27;100.00;98809.27;109631;1250;65718;-77
2023/03/04 05:57:57;;;;;;;79.10;37.50;;;;;;;-1.25;100.00;98806.96;109643;1250;61123;-77
2023/03/04 06:00:24;;;;;;;68.30;33.80;;;;;;;-1.21;100.00;98804.63;109586;1250;65175;-78
2023/03/04 06:02:51;;;;;;;70.40;35.30;;;;;;;-1.19;100.00;98803.19;109614;1250;58952;-78
2023/03/04 06:05:19;;;;;;;67.20;34.10;;;;;;;-1.17;100.00;98801.05;109585;1250;59070;-78
2023/03/04 06:07:46;;;;;;;77.20;36.70;;;;;;;-1.13;100.00;98796.60;109636;1250;67183;-78
2023/03/04 06:10:14;;;;;;;71.70;36.00;;;;;;;-1.09;100.00;98795.98;109608;1250;60774;-79
2023/03/04 06:12:41;;;;;;;71.90;36.60;;;;;;;-1.07;100.00;98798.37;109663;1250;64975;-77
2023/03/04 06:15:09;;;;;;;68.10;36.20;;;;;;;-1.05;100.00;98801.65;109598;1250;58990;-78
2023/03/04 06:17:37;;;;;;;80.20;39.80;;;;;;;-1.04;100.00;98803.73;109613;1250;58987;-78
2023/03/04 06:20:07;;;;;;;72.60;39.00;;;;;;;-1.05;100.00;98808.10;109620;1250;66962;-78
2023/03/04 06:22:34;;;;;;;65.60;35.30;;;;;;;-1.03;100.00;98810.84;109450;1250;59153;-78
2023/03/04 06:25:01;;;;;;;74.10;39.20;;;;;;;-0.99;100.00;98817.39;109595;1250;65077;-79
2023/03/04 06:27:28;;;;;;;71.60;37.60;;;;;;;-0.96;100.00;98818.17;109554;1250;58946;-78
2023/03/04 06:29:55;;;;;;;72.50;35.90;;;;;;;-0.95;100.00;98816.77;109631;1250;59091;-78
2023/03/04 06:32:22;;;;;;;75.10;37.90;;;;;;;-0.95;100.00;98817.80;109645;1250;66986;-79
2023/03/04 06:34:48;;;;;;;76.10;40.60;;;;;;;-0.94;100.00;98818.47;109645;1250;61145;-78
2023/03/04 06:37:15;;;;;;;74.40;38.30;;;;;;;-0.92;100.00;98815.81;109591;1250;64778;-78
2023/03/04 06:39:43;;;;;;;67.90;36.20;;;;;;;-0.92;100.00;98814.41;109593;1250;58965;-77
2023/03/04 06:42:09;;;;;;;74.90;37.60;;;;;;;-0.90;100.00;98814.20;109602;1250;59026;-78
2023/03/04 06:44:36;;;;;;;73.70;37.60;;;;;;;-0.87;100.00;98808.89;109596;1250;66774;-78
2023/03/04 06:47:03;;;;;;;72.70;37.10;;;;;;;-0.84;100.00;98805.16;109669;1250;60014;-78
2023/03/04 06:49:30;;;;;;;69.30;34.50;;;;;;;-0.82;100.00;98802.51;109606;1250;63780;-78
2023/03/04 06:51:56;;;;;;;67.40;34.00;;;;;;;-0.81;100.00;98801.62;109491;1250;58955;-78
2023/03/04 06:54:23;;;;;;;75.50;38.90;;;;;;;-0.81;100.00;98800.73;109341;1250;59021;-78
2023/03/04 06:56:50;;;;;;;67.70;34.90;;;;;;;-0.80;100.00;98800.71;109607;1250;66721;-78
2023/03/04 06:59:16;;;;;;;76.60;38.80;;;;;;;-0.81;100.00;98800.20;109649;1250;60958;-78
2023/03/04 07:01:43;;;;;;;71.10;33.10;;;;;;;-0.80;100.00;98806.80;109651;1250;64759;-77
2023/03/04 07:04:12;;;;;;;66.90;33.70;;;;;;;-0.78;100.00;98811.83;109577;1250;58999;-78
2023/03/04 07:06:39;;;;;;;69.10;32.70;;;;;;;-0.76;100.00;98815.60;109614;1250;59006;-78
2023/03/04 07:09:05;;;;;;;75.90;36.70;;;;;;;-0.75;100.00;98816.63;109611;1250;64388;-78
2023/03/04 07:11:32;;;;;;;79.40;37.30;;;;;;;-0.76;100.00;98816.66;109645;1250;60834;-78
2023/03/04 07:13:59;;;;;;;67.90;33.80;;;;;;;-0.74;100.00;98820.45;109663;1250;63731;-78
2023/03/04 07:16:25;;;;;;;69.60;35.90;;;;;;;-0.73;100.00;98823.05;109622;1250;58960;-79
2023/03/04 07:18:52;;;;;;;74.90;37.60;;;;;;;-0.71;100.00;98822.46;109603;1250;59003;-78
2023/03/04 07:21:18;;;;;;;72.40;36.50;;;;;;;-0.68;100.00;98827.44;109636;1250;66028;-78
2023/03/04 07:23:45;;;;;;;77.10;35.30;;;;;;;-0.64;100.00;98828.06;109658;1250;61185;-78
2023/03/04 07:26:12;;;;;;;78.00;39.10;;;;;;;-0.61;100.00;98825.89;109601;1250;64421;-78
2023/03/04 07:28:41;;;;;;;82.30;38.00;;;;;;;-0.60;100.00;98827.26;109587;1250;58992;-79
2023/03/04 07:31:33;;;;;;;78.30;38.80;;;;;;;-0.58;100.00;98831.59;109585;1250;59053;-79
2023/03/04 07:34:02;;;;;;;76.70;37.20;;;;;;;-0.58;100.00;98831.74;109594;1250;67062;-78
2023/03/04 07:36:30;;;;;;;81.10;38.50;;;;;;;-0.58;100.00;98831.75;109639;1250;60171;-78
2023/03/04 07:38:57;;;;;;;74.50;37.20;;;;;;;-0.58;100.00;98831.92;109599;1250;63665;-78
2023/03/04 07:41:26;;;;;;;83.30;38.70;;;;;;;-0.56;100.00;98831.18;109595;1250;59014;-78
2023/03/04 07:43:52;;;;;;;76.00;37.90;;;;;;;-0.54;100.00;98836.88;109426;1250;58949;-78
2023/03/04 07:46:19;;;;;;;69.10;33.10;;;;;;;-0.52;100.00;98834.22;109596;1250;67039;-78
2023/03/04 07:48:46;;;;;;;67.40;34.70;;;;;;;-0.49;100.00;98829.08;109629;1250;59910;-78
2023/03/04 07:51:22;;;;;;;63.70;32.70;;;;;;;-0.45;100.00;98827.94;109569;1250;64220;-78
2023/03/04 07:53:52;;;;;;;70.20;32.80;;;;;;;-0.41;100.00;98833.42;109536;1250;58995;-79
2023/03/04 07:56:22;;;;;;;68.70;33.20;;;;;;;-0.40;100.00;98835.48;109605;1250;59173;-79
2023/03/04 07:58:52;;;;;;;60.00;33.60;;;;;;;-0.37;100.00;98835.61;109616;1250;66689;-79
2023/03/04 08:01:22;;;;;;;62.30;33.30;;;;;;;-0.34;100.00;98840.40;109646;1250;60722;-79
2023/03/04 08:03:48;;;;;;;56.40;28.70;;;;;;;-0.36;100.00;98842.38;109603;1250;64729;-78
2023/03/04 08:06:17;;;;;;;61.20;30.90;;;;;;;-0.36;100.00;98846.58;109594;1250;59011;-78
2023/03/04 08:08:44;;;;;;;62.80;32.50;;;;;;;-0.36;100.00;98847.09;109658;1250;58877;-79
2023/03/04 08:11:14;;;;;;;59.70;31.60;;;;;;;-0.35;100.00;98848.44;109320;1250;64482;-79
2023/03/04 08:13:41;;;;;;;;;;;;;;;-0.32;100.00;98848.73;109645;1250;59823;-77
2023/03/04 08:16:14;;;;;;;58.60;29.80;;;;;;;-0.30;100.00;98851.81;109614;1250;64857;-79
2023/03/04 08:18:42;;;;;;;53.30;30.60;;;;;;;-0.24;100.00;98852.53;109546;1250;59239;-79
2023/03/04 08:21:11;;;;;;;60.30;31.70;;;;;;;-0.15;100.00;98853.00;109597;1250;58947;-78
2023/03/04 08:23:38;;;;;;;56.30;30.30;;;;;;;-0.05;100.00;98850.65;109542;1250;65843;-78
2023/03/04 08:26:10;;;;;;;56.90;32.00;;;;;;;0.00;100.00;98850.36;109639;1250;59770;-78
2023/03/04 08:28:37;;;;;;;56.60;31.50;;;;;;;0.06;100.00;98845.14;109580;1250;64658;-78
2023/03/04 08:31:04;;;;;;;57.50;32.60;;;;;;;0.11;100.00;98845.17;109615;1250;58925;-78
2023/03/04 08:33:32;;;;;;;52.40;30.30;;;;;;;0.14;100.00;98849.80;109618;1250;59134;-78
2023/03/04 08:35:59;;;;;;;52.30;29.40;;;;;;;0.17;100.00;98852.86;109382;1250;65736;-78
2023/03/04 08:38:26;;;;;;;52.70;31.50;;;;;;;0.17;100.00;98852.17;109659;1250;61466;-79
2023/03/04 08:40:55;;;;;;;52.00;31.10;;;;;;;0.14;100.00;98852.05;109622;1250;64874;-78
2023/03/04 08:43:23;;;;;;;53.80;30.80;;;;;;;0.13;100.00;98855.06;109599;1250;58992;-78
2023/03/04 08:45:51;;;;;;;53.70;30.30;;;;;;;0.14;100.00;98856.10;109603;1250;59007;-79
2023/03/04 08:48:18;;;;;;;53.70;31.40;;;;;;;0.14;100.00;98856.96;109633;1250;66851;-79
2023/03/04 08:50:46;;;;;;;48.80;28.00;;;;;;;0.14;100.00;98856.62;109696;1250;60055;-78
2023/03/04 08:53:13;;;;;;;54.60;32.80;;;;;;;0.13;100.00;98857.52;109591;1250;64787;-77
2023/03/04 08:55:41;;;;;;;53.70;32.00;;;;;;;0.13;100.00;98858.04;109597;1250;58937;-77
2023/03/04 08:58:08;;;;;;;62.20;33.20;;;;;;;0.13;100.00;98856.29;109646;1250;58994;-77
2023/03/04 09:00:38;;;;;;;56.90;33.00;;;;;;;0.12;100.00;98858.56;109352;1250;67284;-77
2023/03/04 09:03:05;;;;;;;57.50;33.40;;;;;;;0.13;100.00;98861.52;109618;1250;59845;-78
2023/03/04 09:05:32;;;;;;;59.60;33.70;;;;;;;0.13;100.00;98865.19;109637;1250;64046;-79
2023/03/04 09:07:58;;;;;;;52.80;32.00;;;;;;;0.14;100.00;98864.64;109350;1250;59096;-79
2023/03/04 09:10:25;;;;;;;55.90;34.30;;;;;;;0.16;100.00;98865.98;109571;1250;59075;-79
2023/03/04 09:12:52;;;;;;;58.20;33.70;;;;;;;0.22;100.00;98866.71;109664;1250;66035;-76
2023/03/04 09:15:18;;;;;;;63.00;35.40;;;;;;;0.27;100.00;98869.88;109618;1249;59759;-78
2023/03/04 09:17:45;;;;;;;59.90;34.40;;;;;;;0.32;100.00;98871.84;109432;1250;62399;-77
2023/03/04 09:20:12;;;;;;;59.50;36.60;;;;;;;0.39;100.00;98861.86;109616;1250;58952;-77
2023/03/04 09:22:40;;;;;;;60.30;36.30;;;;;;;0.47;100.00;98859.91;109623;1250;59041;-78
2023/03/04 09:25:08;;;;;;;57.60;35.40;;;;;;;0.56;100.00;98857.89;109428;1250;66831;-77
2023/03/04 09:27:34;;;;;;;59.50;37.20;;;;;;;0.62;100.00;98856.48;109659;1250;60786;-79
2023/03/04 09:30:01;;;;;;;59.80;37.70;;;;;;;0.66;100.00;98854.27;109587;1250;64134;-78
2023/03/04 09:32:28;;;;;;;65.50;39.20;;;;;;;0.69;100.00;98852.09;109633;1250;59059;-78
2023/03/04 09:34:54;;;;;;;70.50;42.50;;;;;;;0.72;100.00;98850.25;109647;1250;58968;-78
2023/03/04 09:37:23;;;;;;;62.70;37.80;;;;;;;0.74;100.00;98850.90;109629;1250;73619;-78
2023/03/04 09:39:50;;;;;;;69.60;39.60;;;;;;;0.76;100.00;98847.17;109600;1250;59391;-77
2023/03/04 09:42:42;;;;;;;61.80;36.00;;;;;;;0.76;100.00;98843.30;109574;1250;63730;-77
2023/03/04 09:45:15;;;;;;;59.70;35.20;;;;;;;0.75;100.00;98842.66;109586;1250;58952;-78
2023/03/04 09:47:43;;;;;;;66.40;38.20;;;;;;;0.74;100.00;98844.80;109636;1250;58972;-77
2023/03/04 09:50:11;;;;;;;65.30;37.20;;;;;;;0.73;100.00;98843.92;109618;1250;65954;-78
2023/03/04 09:53:03;;;;;;;63.50;35.60;;;;;;;0.75;100.00;98841.96;109543;1250;59706;-78
2023/03/04 09:55:42;;;;;;;61.30;36.10;;;;;;;0.72;100.00;98839.06;109606;1250;65170;-78
2023/03/04 09:58:46;;;;;;;74.80;40.30;;;;;;;0.69;100.00;98836.70;109647;1250;59348;-78
2023/03/04 10:01:43;;;;;;;66.00;36.80;;;;;;;0.66;100.00;98831.39;109619;1250;58970;-78
2023/03/04 10:04:16;;;;;;;65.80;37.80;;;;;;;0.61;100.00;98832.40;109649;1250;65953;-77
2023/03/04 10:06:45;;;;;;;65.70;36.60;;;;;;;0.58;100.00;98829.86;109627;1250;60812;-76
2023/03/04 10:09:18;;;;;;;74.40;40.50;;;;;;;0.52;100.00;98829.85;109591;1250;65484;-78
2023/03/04 10:12:00;;;;;;;64.90;37.20;;;;;;;0.52;100.00;98831.25;109632;1250;59038;-79
2023/03/04 10:14:59;;;;;;;68.00;39.00;;;;;;;0.57;100.00;98826.20;109635;1250;58914;-77
2023/03/04 10:17:36;;;;;;;62.60;35.80;;;;;;;0.60;100.00;98821.57;109631;1250;66734;-77
2023/03/04 10:20:10;;;;;;;73.30;37.80;;;;;;;0.64;100.00;98815.86;109480;1250;60157;-78
2023/03/04 10:22:50;;;;;;;67.20;37.30;;;;;;;0.63;100.00;98811.88;109636;1250;65355;-78
2023/03/04 10:25:29;;;;;;;65.90;35.90;;;;;;;0.65;100.00;98810.77;109608;1250;58913;-77
2023/03/04 10:28:03;;;;;;;66.00;36.00;;;;;;;0.68;100.00;98812.45;108088;1250;1003044;-78
2023/03/04 10:31:03;;;;;;;65.90;38.20;;;;;;;0.71;100.00;98810.08;109242;1250;73331;-79
2023/03/04 10:33:36;;;;;;;61.10;36.60;;;;;;;0.71;100.00;98805.88;108995;1258;60711;-78
2023/03/04 10:36:21;;;;;;;60.30;35.30;;;;;;;0.70;100.00;98805.04;108964;1258;63644;-77
2023/03/04 10:38:52;;;;;;;60.50;34.90;;;;;;;0.71;100.00;98803.41;109011;1258;59057;-77
2023/03/04 10:41:23;;;;;;;57.80;35.20;;;;;;;0.77;100.00;98802.19;109021;1258;59134;-79
2023/03/04 10:44:01;;;;;;;63.40;35.60;;;;;;;0.85;100.00;98795.99;108867;1258;66502;-78
2023/03/04 10:46:31;;;;;;;61.20;35.90;;;;;;;0.91;100.00;98789.87;108932;1257;61312;-79
2023/03/04 10:48:58;;;;;;;63.20;35.60;;;;;;;0.93;100.00;98787.88;109028;1259;64797;-78
2023/03/04 10:51:27;;;;;;;66.00;38.20;;;;;;;0.95;100.00;98785.02;108872;1257;129656;-79
2023/03/04 10:54:08;;;;;;;59.90;35.90;;;;;;;0.97;100.00;98785.49;108914;1260;59055;-78
2023/03/04 10:56:39;;;;;;;60.00;34.20;;;;;;;0.95;100.00;98784.66;109030;1259;66841;-78
2023/03/04 10:59:39;;;;;;;60.00;35.00;;;;;;;0.92;100.00;98780.94;109034;1259;59840;-78
2023/03/04 11:02:18;;;;;;;67.40;38.20;;;;;;;0.90;100.00;98779.41;109012;1258;64914;-78
2023/03/04 11:05:04;;;;;;;58.70;36.20;;;;;;;0.95;100.00;98776.80;108951;1259;59063;-76
2023/03/04 11:07:30;;;;;;;55.30;34.00;;;;;;;1.04;100.00;98774.77;108981;1259;59062;-77
2023/03/04 11:10:10;;;;;;;61.00;34.70;;;;;;;1.12;100.00;98774.15;108381;1250;1002276;-79
2023/03/04 11:12:37;;;;;;;58.20;34.40;;;;;;;1.19;100.00;98769.55;109570;1250;59873;-78